Time;durP1;ratioP1;P1;durP2;ratioP2;P2;SDS_P1;SDS_P2;PMS_P1;PMS_P2;Temp;Humidity;BMP_temperature;BMP_pressure;BME280_temperature;BME280_humidity;BME280_pressure;Samples;Min_cycle;Max_cycle;Signal;HPM_P1;HPM_P2
2023/09/23 00:00:24;;;;;;;3.10;2.90;;;;;;;17.23;84.47;98913.66;216840;1275;140920;-76
2023/09/23 00:05:48;;;;;;;4.60;2.80;;;;;;;17.19;84.45;98933.45;216651;1276;140822;-74
2023/09/23 00:10:51;;;;;;;4.10;2.50;;;;;;;17.19;84.54;98945.36;217287;1276;140731;-75
2023/09/23 00:15:56;;;;;;;9.10;3.20;;;;;;;17.17;84.66;98965.05;216359;1277;140642;-70
2023/09/23 00:20:59;;;;;;;3.40;3.00;;;;;;;17.13;84.55;98967.75;215474;1279;141119;-75
2023/09/23 00:26:06;;;;;;;4.50;3.30;;;;;;;17.09;84.80;98971.79;215827;1277;141383;-77
2023/09/23 00:31:14;;;;;;;5.10;2.90;;;;;;;17.08;84.99;98985.15;215613;1276;140400;-76
2023/09/23 00:36:19;;;;;;;3.10;2.70;;;;;;;17.00;84.67;98996.71;215633;1278;140603;-74
2023/09/23 00:41:25;;;;;;;2.20;2.00;;;;;;;16.89;84.46;98986.05;215308;1276;142861;-72
2023/09/23 00:46:29;;;;;;;2.80;2.20;;;;;;;16.78;84.26;98997.86;215181;1276;139958;-74
2023/09/23 00:51:33;;;;;;;2.40;2.20;;;;;;;16.69;84.46;99010.92;215163;1276;140245;-74
2023/09/23 00:56:36;;;;;;;2.80;2.10;;;;;;;16.63;84.53;99020.30;215525;1276;140090;-76
2023/09/23 01:01:41;;;;;;;2.70;2.20;;;;;;;16.51;83.99;99027.34;215081;1277;140381;-75
2023/09/23 01:06:45;;;;;;;2.40;1.70;;;;;;;16.34;83.82;99038.34;214943;1276;140555;-73
2023/09/23 01:11:52;;;;;;;4.60;1.90;;;;;;;16.20;83.68;99034.64;214897;1276;140632;-73
2023/09/23 01:16:58;;;;;;;4.20;2.30;;;;;;;16.10;83.72;99027.63;215311;1277;141275;-75
2023/09/23 01:22:03;;;;;;;3.70;2.20;;;;;;;16.02;83.66;99024.23;214862;1277;140344;-74
2023/09/23 01:27:08;;;;;;;3.10;2.10;;;;;;;15.95;83.73;99041.17;215016;1277;140360;-74
2023/09/23 01:32:28;;;;;;;3.00;2.20;;;;;;;15.85;83.90;99042.11;215285;1276;140376;-73
2023/09/23 01:37:34;;;;;;;1.70;1.60;;;;;;;15.79;84.06;99042.92;215184;1277;141241;-74
2023/09/23 01:42:38;;;;;;;3.30;2.40;;;;;;;15.75;84.28;99044.84;216161;1276;140234;-73
2023/09/23 01:47:42;;;;;;;2.60;2.40;;;;;;;15.73;84.56;99046.36;215557;1276;141063;-72
2023/09/23 01:52:46;;;;;;;3.10;2.80;;;;;;;15.72;84.66;99040.90;215865;1276;140376;-74
2023/09/23 01:57:50;;;;;;;5.00;2.80;;;;;;;15.71;84.80;99042.80;215056;1276;141335;-73
2023/09/23 02:02:55;;;;;;;4.70;3.10;;;;;;;15.71;84.78;99044.14;215657;1276;140391;-74
2023/09/23 02:07:59;;;;;;;5.90;3.30;;;;;;;15.69;84.96;99058.39;216987;1276;142620;-74
2023/09/23 02:13:04;;;;;;;4.50;2.80;;;;;;;15.69;85.06;99054.96;217312;1274;142074;-71
2023/09/23 02:18:07;;;;;;;3.60;3.30;;;;;;;15.69;85.04;99049.11;217318;1274;142329;-75
2023/09/23 02:23:14;;;;;;;3.40;3.10;;;;;;;15.70;85.33;99053.27;215314;1273;140413;-74
2023/09/23 02:28:21;;;;;;;4.70;3.30;;;;;;;15.70;85.31;99066.50;216074;1276;140769;-74
2023/09/23 02:33:26;;;;;;;3.20;2.80;;;;;;;15.67;85.51;99058.73;215154;1276;140176;-75
2023/09/23 02:38:31;;;;;;;4.10;2.80;;;;;;;15.66;85.54;99045.85;215442;1279;140792;-74
2023/09/23 02:43:35;;;;;;;3.60;3.30;;;;;;;15.66;85.82;99061.86;216336;1276;141355;-75
2023/09/23 02:48:38;;;;;;;3.00;2.70;;;;;;;15.66;85.92;99074.32;214957;1276;140797;-77
2023/09/23 02:53:44;;;;;;;2.40;2.30;;;;;;;15.65;85.91;99081.00;214849;1276;140709;-77
2023/09/23 02:58:51;;;;;;;3.40;3.20;;;;;;;15.62;86.05;99066.67;214915;1276;140212;-75
2023/09/23 03:03:56;;;;;;;2.10;1.90;;;;;;;15.62;86.02;99081.63;214803;1276;141023;-73
2023/09/23 03:08:59;;;;;;;59.90;6.60;;;;;;;15.57;86.14;99081.31;215368;1276;141118;-76
2023/09/23 03:14:03;;;;;;;2.50;2.10;;;;;;;15.55;86.34;99082.48;214842;1279;141617;-76
2023/09/23 03:19:15;;;;;;;3.50;3.20;;;;;;;15.55;86.53;99081.80;215249;1276;140704;-77
2023/09/23 03:24:19;;;;;;;5.30;2.30;;;;;;;15.54;86.66;99064.83;215012;1278;140020;-77
2023/09/23 03:29:23;;;;;;;2.40;2.20;;;;;;;15.54;86.81;99070.57;215096;1276;140894;-75
2023/09/23 03:34:26;;;;;;;2.70;2.40;;;;;;;15.55;86.79;99075.55;214676;1276;140990;-75
2023/09/23 03:39:33;;;;;;;3.90;3.20;;;;;;;15.54;86.82;99081.53;215025;1276;140703;-76
2023/09/23 03:44:38;;;;;;;3.80;3.30;;;;;;;15.55;86.83;99090.66;215129;1276;140999;-75
2023/09/23 03:49:41;;;;;;;3.70;2.50;;;;;;;15.54;86.91;99113.23;216243;1276;140205;-73
2023/09/23 03:54:44;;;;;;;3.10;2.60;;;;;;;15.52;86.90;99125.64;216306;1276;140870;-75
2023/09/23 03:59:49;;;;;;;2.40;2.20;;;;;;;15.51;86.97;99134.30;216781;1276;140292;-73
2023/09/23 04:04:54;;;;;;;2.20;2.10;;;;;;;15.50;87.09;99153.22;215637;1276;140397;-73
2023/09/23 04:09:58;;;;;;;2.00;1.90;;;;;;;15.49;87.13;99160.20;217247;1276;140878;-72
2023/09/23 04:15:04;;;;;;;2.00;1.90;;;;;;;15.48;87.01;99171.60;217376;1276;140599;-72
2023/09/23 04:20:09;;;;;;;2.00;1.90;;;;;;;15.50;87.17;99183.73;217277;1276;141675;-74
2023/09/23 04:25:15;;;;;;;2.30;1.90;;;;;;;15.55;87.34;99213.05;216110;1275;140588;-73
2023/09/23 04:30:18;;;;;;;2.60;2.40;;;;;;;15.58;87.24;99221.64;215594;1276;140977;-72
2023/09/23 04:35:21;;;;;;;2.70;2.30;;;;;;;15.59;87.45;99230.61;216234;1276;140975;-73
2023/09/23 04:40:26;;;;;;;3.20;2.90;;;;;;;15.62;87.47;99234.91;215274;1275;139963;-73
2023/09/23 04:45:31;;;;;;;4.40;2.50;;;;;;;15.63;87.65;99234.16;214804;1279;141358;-74
2023/09/23 04:50:35;;;;;;;4.60;4.20;;;;;;;15.60;87.56;99232.10;216096;1276;141113;-70
2023/09/23 04:55:40;;;;;;;3.60;3.30;;;;;;;15.58;87.71;99232.88;214759;1279;140770;-74
2023/09/23 05:00:43;;;;;;;8.70;4.40;;;;;;;15.57;87.87;99221.77;215643;1275;142083;-74
2023/09/23 05:05:50;;;;;;;4.10;3.80;;;;;;;15.55;87.96;99213.11;214620;1276;140853;-74
2023/09/23 05:10:56;;;;;;;11.50;6.20;;;;;;;15.54;87.94;99227.98;215021;1275;141177;-75
2023/09/23 05:16:01;;;;;;;4.40;3.80;;;;;;;15.52;88.10;99222.84;215107;1279;142058;-74
2023/09/23 05:21:09;;;;;;;5.50;4.10;;;;;;;15.53;88.17;99245.40;215117;1276;140599;-74
2023/09/23 05:26:12;;;;;;;3.90;3.60;;;;;;;15.53;88.35;99258.89;216172;1276;141047;-73
2023/09/23 05:31:17;;;;;;;4.10;3.70;;;;;;;15.50;88.14;99289.09;214984;1276;140880;-73
2023/09/23 05:36:20;;;;;;;2.80;2.50;;;;;;;15.51;88.19;99323.67;214986;1275;140415;-72
2023/09/23 05:41:26;;;;;;;3.50;3.20;;;;;;;15.50;87.91;99345.06;214753;1276;141799;-73
2023/09/23 05:46:29;;;;;;;5.90;2.80;;;;;;;15.52;88.11;99342.42;216389;1275;141442;-73
2023/09/23 05:51:35;;;;;;;4.90;3.30;;;;;;;15.55;88.04;99342.75;216453;1276;140193;-72
2023/09/23 05:56:38;;;;;;;3.40;3.10;;;;;;;15.60;88.17;99327.20;215196;1276;141027;-73
2023/09/23 06:01:42;;;;;;;2.90;2.70;;;;;;;15.68;87.96;99320.92;216489;1276;141246;-73
2023/09/23 06:06:44;;;;;;;12.90;3.50;;;;;;;15.81;87.90;99314.34;216824;1275;140591;-73
2023/09/23 06:11:48;;;;;;;3.40;2.40;;;;;;;15.95;87.81;99315.80;216219;1276;140583;-74
2023/09/23 06:16:52;;;;;;;10.30;3.10;;;;;;;16.06;87.60;99315.13;217021;1275;140973;-68
2023/09/23 06:22:00;;;;;;;2.10;1.90;;;;;;;16.12;87.13;99316.98;216063;1275;141412;-68
2023/09/23 06:27:02;;;;;;;3.30;2.90;;;;;;;16.21;86.93;99334.90;215465;1275;140542;-69
2023/09/23 06:32:07;;;;;;;3.00;2.80;;;;;;;16.40;87.11;99352.08;216124;1276;141483;-69
2023/09/23 06:37:10;;;;;;;2.40;2.20;;;;;;;16.54;86.93;99375.94;215657;1275;140994;-71
2023/09/23 06:42:13;;;;;;;3.00;2.70;;;;;;;16.67;86.65;99377.90;215107;1276;140952;-75
2023/09/23 06:47:15;;;;;;;20.70;4.60;;;;;;;16.84;86.56;99373.33;214728;1279;140811;-74
2023/09/23 06:52:19;;;;;;;3.60;3.30;;;;;;;16.95;86.14;99390.24;214925;1279;143450;-78
2023/09/23 06:57:22;;;;;;;4.60;3.40;;;;;;;16.94;85.53;99399.29;215831;1276;140413;-80
2023/09/23 07:02:25;;;;;;;5.00;3.40;;;;;;;16.91;85.31;99403.89;215330;1276;140391;-72
2023/09/23 07:07:30;;;;;;;5.40;4.10;;;;;;;16.79;85.11;99400.14;215155;1275;140925;-72
2023/09/23 07:12:33;;;;;;;4.40;4.10;;;;;;;16.72;85.28;99413.77;215164;1276;141773;-77
2023/09/23 07:17:37;;;;;;;5.60;4.40;;;;;;;16.71;85.39;99423.95;215578;1275;140399;-75
2023/09/23 07:22:40;;;;;;;9.10;5.40;;;;;;;16.75;85.47;99417.52;214990;1275;140501;-77
2023/09/23 07:27:43;;;;;;;5.40;3.90;;;;;;;16.89;85.56;99439.55;214877;1275;140268;-79
2023/09/23 07:32:46;;;;;;;5.50;4.90;;;;;;;17.11;85.45;99455.50;214290;1279;654956;-80
2023/09/23 07:37:50;;;;;;;4.20;3.80;;;;;;;17.41;85.18;99473.04;215229;1275;140147;-79
2023/09/23 07:42:53;;;;;;;6.10;4.60;;;;;;;17.41;84.49;99488.02;214740;1276;141018;-75
2023/09/23 07:47:58;;;;;;;3.70;3.40;;;;;;;17.29;84.10;99487.92;215017;1276;140260;-74
2023/09/23 07:53:01;;;;;;;3.90;3.60;;;;;;;17.29;84.29;99480.92;216722;1275;141408;-71
2023/09/23 07:58:05;;;;;;;3.60;3.30;;;;;;;17.37;84.34;99472.55;215572;1275;140088;-72
2023/09/23 08:03:09;;;;;;;4.70;4.30;;;;;;;17.65;84.33;99468.95;215879;1276;141711;-75
2023/09/23 08:08:12;;;;;;;3.80;3.50;;;;;;;18.06;84.18;99492.90;215832;1279;164467;-71
2023/09/23 08:13:16;;;;;;;5.10;3.60;;;;;;;18.30;83.42;99502.30;216582;1275;140333;-72
2023/09/23 08:18:19;;;;;;;3.60;3.30;;;;;;;18.44;83.22;99495.06;216821;1275;140332;-70
2023/09/23 08:23:22;;;;;;;4.30;3.40;;;;;;;18.53;82.25;99495.42;215475;1275;141492;-73
2023/09/23 08:28:25;;;;;;;4.40;3.90;;;;;;;18.56;81.75;99492.04;216324;1276;140099;-74
2023/09/23 08:33:29;;;;;;;3.80;3.20;;;;;;;18.54;81.11;99486.51;214778;1279;140890;-78
2023/09/23 08:38:32;;;;;;;3.00;2.70;;;;;;;18.52;80.66;99490.05;216536;1275;141014;-81
2023/09/23 08:43:38;;;;;;;3.30;2.40;;;;;;;18.43;80.14;99486.55;215060;1276;155339;-80
2023/09/23 08:48:43;;;;;;;3.30;3.00;;;;;;;18.40;80.27;99496.26;214774;1276;140588;-80
2023/09/23 08:53:48;;;;;;;6.80;2.90;;;;;;;18.42;80.30;99513.34;214935;1276;141705;-74
2023/09/23 08:58:52;;;;;;;6.80;2.50;;;;;;;18.48;80.18;99523.52;215561;1276;140977;-73
2023/09/23 09:03:56;;;;;;;13.60;3.90;;;;;;;18.60;80.24;99525.36;215253;1276;141109;-76
2023/09/23 09:08:58;;;;;;;1.80;1.60;;;;;;;18.70;79.74;99536.71;215103;1276;141086;-75
2023/09/23 09:14:00;;;;;;;2.00;1.90;;;;;;;18.64;78.85;99531.46;215447;1275;140863;-73
2023/09/23 09:19:03;;;;;;;1.80;1.70;;;;;;;18.47;78.70;99508.35;214706;1276;140308;-70
2023/09/23 09:24:07;;;;;;;3.00;1.80;;;;;;;18.54;78.98;99501.52;214885;1277;140456;-72
2023/09/23 09:29:10;;;;;;;2.10;2.00;;;;;;;18.76;79.09;99506.66;214757;1276;141429;-72
2023/09/23 09:34:13;;;;;;;2.80;2.50;;;;;;;18.97;78.55;99505.00;214653;1275;139977;-71
2023/09/23 09:39:19;;;;;;;2.70;2.40;;;;;;;19.09;77.92;99508.65;215812;1276;140304;-76
2023/09/23 09:44:23;;;;;;;3.10;2.80;;;;;;;19.31;77.84;99515.79;214911;1276;141556;-78
2023/09/23 09:49:27;;;;;;;4.90;3.50;;;;;;;19.53;77.62;99530.55;215836;1276;141103;-76
2023/09/23 09:54:31;;;;;;;5.80;3.40;;;;;;;19.60;76.82;99521.59;215611;1276;140668;-75
2023/09/23 09:59:42;;;;;;;4.00;3.70;;;;;;;19.61;76.17;99520.81;214773;1276;141217;-75
2023/09/23 10:04:52;;;;;;;4.50;4.00;;;;;;;19.71;75.99;99531.45;215507;1276;141124;-76
2023/09/23 10:09:58;;;;;;;6.10;5.60;;;;;;;19.98;75.94;99537.33;216184;1276;140174;-76
2023/09/23 10:15:01;;;;;;;;;;;;;;;20.25;75.28;99544.33;216291;1276;140342;-76
2023/09/23 10:20:13;;;;;;;8.10;6.70;;;;;;;20.21;74.38;99550.36;215058;1276;220014;-76
2023/09/23 10:25:16;;;;;;;8.20;6.80;;;;;;;20.04;73.59;99549.42;215231;1277;141077;-75
2023/09/23 10:30:26;;;;;;;8.40;7.60;;;;;;;19.91;73.36;99557.35;217234;1275;140226;-74
2023/09/23 10:35:29;;;;;;;6.60;6.00;;;;;;;19.89;73.18;99569.30;214921;1276;140127;-76
2023/09/23 10:40:31;;;;;;;6.50;5.80;;;;;;;19.78;73.01;99573.85;215477;1275;140875;-78
2023/09/23 10:45:35;;;;;;;7.70;6.90;;;;;;;19.63;72.87;99581.54;215325;1277;141756;-73
2023/09/23 10:50:52;;;;;;;8.70;7.00;;;;;;;19.46;73.17;99576.88;214898;1276;140509;-74
2023/09/23 10:56:04;;;;;;;10.50;7.60;;;;;;;19.45;73.36;99568.04;215152;1276;141217;-73
2023/09/23 11:01:09;;;;;;;7.40;6.80;;;;;;;19.37;73.28;99565.89;214875;1275;141170;-74
2023/09/23 11:06:16;;;;;;;8.20;7.40;;;;;;;19.25;73.37;99572.55;215867;1276;140023;-75
2023/09/23 11:11:21;;;;;;;7.30;6.50;;;;;;;19.19;73.54;99569.08;214985;1276;140096;-70
2023/09/23 11:16:27;;;;;;;8.30;7.40;;;;;;;19.13;73.44;99563.98;214775;1277;141571;-72
2023/09/23 11:21:46;;;;;;;8.00;7.20;;;;;;;19.09;73.39;99562.91;214938;1275;142380;-72
2023/09/23 11:26:50;;;;;;;8.90;6.60;;;;;;;19.06;73.39;99565.55;215604;1275;141156;-73
2023/09/23 11:31:54;;;;;;;6.40;5.80;;;;;;;18.93;73.26;99573.64;215870;1276;139932;-78
2023/09/23 11:36:57;;;;;;;14.40;5.80;;;;;;;18.87;73.66;99569.74;215000;1275;141353;-76
2023/09/23 11:42:02;;;;;;;5.90;5.40;;;;;;;18.85;73.65;99578.04;216176;1275;140179;-77
2023/09/23 11:47:05;;;;;;;5.60;5.10;;;;;;;18.68;73.41;99584.02;215158;1276;141054;-75
2023/09/23 11:52:12;;;;;;;4.90;4.40;;;;;;;18.56;73.78;99593.05;215909;1276;140060;-76
2023/09/23 11:57:18;;;;;;;5.00;4.60;;;;;;;18.45;73.85;99601.60;215896;1277;141791;-76
2023/09/23 12:02:23;;;;;;;6.80;4.00;;;;;;;18.33;74.01;99603.48;215059;1279;141355;-79
2023/09/23 12:07:26;;;;;;;6.10;3.80;;;;;;;18.24;74.26;99613.80;216320;1276;142699;-78
2023/09/23 12:12:30;;;;;;;3.90;3.60;;;;;;;18.24;74.67;99613.81;216713;1275;141008;-78
2023/09/23 12:17:32;;;;;;;4.70;4.40;;;;;;;18.29;75.16;99620.17;215399;1276;140985;-77
2023/09/23 12:22:39;;;;;;;3.90;3.60;;;;;;;18.29;75.23;99622.75;215496;1275;141915;-76
2023/09/23 12:27:42;;;;;;;4.40;4.10;;;;;;;18.30;75.56;99629.66;216155;1276;140603;-75
2023/09/23 12:32:46;;;;;;;4.30;3.90;;;;;;;18.31;75.85;99634.72;214875;1277;140436;-74
2023/09/23 12:37:51;;;;;;;4.40;3.70;;;;;;;18.24;76.02;99639.76;216173;1275;140634;-73
2023/09/23 12:42:59;;;;;;;5.10;4.00;;;;;;;18.10;76.22;99643.25;215581;1276;141396;-71
2023/09/23 12:48:04;;;;;;;4.20;3.70;;;;;;;17.95;76.55;99636.40;214947;1276;139950;-71
2023/09/23 12:53:10;;;;;;;5.80;4.30;;;;;;;17.90;77.26;99642.72;215495;1279;141179;-71
2023/09/23 12:58:19;;;;;;;4.90;3.60;;;;;;;17.94;77.92;99657.23;215490;1276;140735;-71
2023/09/23 13:03:23;;;;;;;5.50;3.70;;;;;;;17.91;77.91;99657.80;215188;1276;140749;-69
2023/09/23 13:08:26;;;;;;;3.60;2.90;;;;;;;17.82;78.31;99662.41;215187;1276;140135;-73
2023/09/23 13:13:29;;;;;;;3.80;3.40;;;;;;;17.79;78.64;99660.65;215321;1276;141010;-77
2023/09/23 13:18:32;;;;;;;3.90;3.60;;;;;;;17.88;79.10;99663.45;215300;1276;139791;-77
2023/09/23 13:23:41;;;;;;;2.90;2.70;;;;;;;18.04;79.24;99657.51;214935;1276;141191;-73
2023/09/23 13:28:51;;;;;;;4.30;4.00;;;;;;;18.14;79.08;99648.93;215252;1277;140756;-72
2023/09/23 13:33:54;;;;;;;3.10;2.90;;;;;;;18.18;79.14;99635.17;214822;1275;141104;-68
2023/09/23 13:38:58;;;;;;;3.30;3.00;;;;;;;18.26;79.32;99630.24;216566;1276;140347;-76
2023/09/23 13:44:04;;;;;;;4.40;3.90;;;;;;;18.36;79.18;99634.42;214938;1279;143283;-75
2023/09/23 13:49:08;;;;;;;2.40;2.20;;;;;;;18.40;79.27;99636.47;215895;1275;141284;-73
2023/09/23 13:54:13;;;;;;;3.90;3.50;;;;;;;18.43;79.57;99632.40;216444;1276;140350;-76
2023/09/23 13:59:19;;;;;;;8.50;3.90;;;;;;;18.47;79.69;99635.54;215045;1279;140425;-74
2023/09/23 14:04:23;;;;;;;175.50;16.70;;;;;;;18.56;79.63;99644.17;216980;1274;140693;-77
2023/09/23 14:09:27;;;;;;;3.40;3.10;;;;;;;18.58;79.46;99645.41;214603;1277;141917;-69
2023/09/23 14:14:31;;;;;;;3.80;3.30;;;;;;;18.54;79.03;99646.25;216789;1276;140914;-71
2023/09/23 14:19:36;;;;;;;3.70;3.30;;;;;;;18.58;79.46;99642.55;216429;1275;141304;-72
2023/09/23 14:24:40;;;;;;;6.50;4.90;;;;;;;18.63;79.04;99640.47;216997;1275;142486;-71
2023/09/23 14:29:44;;;;;;;5.30;4.10;;;;;;;18.61;78.87;99647.45;216147;1276;141257;-70
2023/09/23 14:34:47;;;;;;;6.80;4.70;;;;;;;18.58;78.99;99657.71;214926;1276;140011;-70
2023/09/23 14:39:50;;;;;;;5.60;4.30;;;;;;;18.61;78.85;99672.61;215777;1276;141357;-68
2023/09/23 14:44:53;;;;;;;12.30;5.00;;;;;;;18.61;78.66;99678.92;215233;1279;140767;-72
2023/09/23 14:49:56;;;;;;;8.20;5.30;;;;;;;18.57;78.53;99681.04;214798;1276;142102;-71
2023/09/23 14:54:59;;;;;;;5.70;5.20;;;;;;;18.51;78.41;99680.63;214958;1276;141075;-70
2023/09/23 15:00:04;;;;;;;4.60;4.20;;;;;;;18.47;78.29;99685.41;214996;1276;140773;-72
2023/09/23 15:05:07;;;;;;;5.40;4.90;;;;;;;18.47;78.22;99698.05;215203;1276;140573;-69
2023/09/23 15:10:10;;;;;;;5.50;5.10;;;;;;;18.44;77.54;99703.16;214863;1276;141222;-71
2023/09/23 15:15:17;;;;;;;5.40;4.80;;;;;;;18.28;76.68;99709.23;215333;1276;140044;-76
2023/09/23 15:20:20;;;;;;;5.60;5.10;;;;;;;18.17;76.30;99713.54;215198;1279;141487;-70
2023/09/23 15:25:25;;;;;;;8.10;5.50;;;;;;;18.08;75.97;99718.86;215393;1277;141143;-78
2023/09/23 15:30:29;;;;;;;6.20;5.50;;;;;;;18.00;75.83;99743.70;215220;1276;141095;-69
2023/09/23 15:42:36;;;;;;;6.40;5.30;;;;;;;17.76;75.31;99773.92;215359;1297;661167;-74
2023/09/23 15:47:39;;;;;;;4.60;4.20;;;;;;;17.64;75.69;99775.36;216501;1272;140529;-71
2023/09/23 15:52:42;;;;;;;4.40;4.10;;;;;;;17.57;75.75;99779.80;217407;1266;579270;-72
2023/09/23 15:57:47;;;;;;;4.70;4.30;;;;;;;17.51;75.87;99788.29;217571;1257;139255;-69
2023/09/23 16:02:49;;;;;;;8.70;4.70;;;;;;;17.44;75.83;99798.20;219442;1257;140904;-68
2023/09/23 16:07:52;;;;;;;6.70;6.10;;;;;;;17.39;75.90;99803.26;218143;1262;139808;-68
2023/09/23 16:12:55;;;;;;;6.40;5.80;;;;;;;17.34;75.82;99801.83;218320;1257;140046;-67
2023/09/23 16:17:59;;;;;;;5.20;4.90;;;;;;;17.24;75.70;99801.38;217922;1261;138880;-70
2023/09/23 16:23:07;;;;;;;6.10;4.70;;;;;;;17.15;75.58;99798.67;217628;1257;138846;-66
2023/09/23 16:28:11;;;;;;;5.10;4.60;;;;;;;17.05;75.41;99798.61;217954;1260;139541;-66
2023/09/23 16:33:13;;;;;;;3.20;3.00;;;;;;;16.94;75.27;99836.35;217753;1260;140353;-68
2023/09/23 16:38:17;;;;;;;4.70;3.10;;;;;;;16.83;75.15;99852.58;218482;1259;139934;-67
2023/09/23 16:43:23;;;;;;;3.50;3.20;;;;;;;16.78;75.40;99856.60;218809;1259;139916;-66
2023/09/23 16:48:26;;;;;;;2.70;2.50;;;;;;;16.74;75.13;99866.61;218322;1259;139812;-65
2023/09/23 16:53:30;;;;;;;2.90;2.60;;;;;;;16.68;75.07;99876.67;218850;1256;139715;-66
2023/09/23 16:58:33;;;;;;;3.10;2.80;;;;;;;16.65;74.93;99867.05;218166;1255;139278;-66
2023/09/23 17:03:41;;;;;;;2.70;2.60;;;;;;;16.63;74.95;99872.36;217882;1259;139155;-76
2023/09/23 17:08:45;;;;;;;3.00;2.80;;;;;;;16.56;74.91;99866.27;218617;1257;140843;-78
2023/09/23 17:13:50;;;;;;;2.80;2.50;;;;;;;16.49;74.72;99866.66;218809;1257;141606;-81
2023/09/23 17:18:53;;;;;;;3.20;2.90;;;;;;;16.39;74.78;99882.80;218497;1257;140270;-69
2023/09/23 17:24:00;;;;;;;2.50;2.40;;;;;;;16.33;74.82;99884.25;219317;1258;140086;-69
2023/09/23 17:29:06;;;;;;;2.70;2.50;;;;;;;16.27;74.94;99893.13;218353;1259;139261;-71
2023/09/23 17:34:08;;;;;;;4.00;2.90;;;;;;;16.21;75.14;99893.13;218158;1258;139874;-72
2023/09/23 17:39:16;;;;;;;3.80;3.50;;;;;;;16.16;75.26;99893.66;218132;1257;139980;-71
2023/09/23 17:44:21;;;;;;;3.10;2.90;;;;;;;16.11;75.35;99916.41;219035;1258;139827;-72
2023/09/23 17:49:28;;;;;;;3.60;3.30;;;;;;;16.01;75.27;99930.69;220518;1256;139176;-72
2023/09/23 17:54:33;;;;;;;3.10;2.90;;;;;;;15.95;75.40;99932.98;219188;1257;139278;-72
2023/09/23 17:59:38;;;;;;;5.90;3.40;;;;;;;15.85;75.52;99945.17;218335;1258;139409;-70
2023/09/23 18:04:47;;;;;;;2.80;2.60;;;;;;;15.74;75.79;99955.71;220450;1257;140623;-71
2023/09/23 18:10:07;;;;;;;3.60;3.00;;;;;;;15.65;75.99;99964.59;219255;1260;140510;-71
2023/09/23 18:15:27;;;;;;;3.10;2.90;;;;;;;15.59;76.21;99973.27;217807;1258;225659;-71
2023/09/23 18:20:42;;;;;;;2.70;2.60;;;;;;;15.51;76.14;99977.52;217776;1256;139393;-70
2023/09/23 18:25:51;;;;;;;3.30;2.90;;;;;;;15.41;76.48;99976.00;218169;1259;142555;-71
2023/09/23 18:31:23;;;;;;;3.30;2.60;;;;;;;15.30;76.78;99984.64;219220;1259;141204;-71
2023/09/23 18:36:49;;;;;;;2.80;2.60;;;;;;;15.13;76.88;99995.81;217784;1257;247375;-70
2023/09/23 18:42:09;;;;;;;2.60;2.40;;;;;;;15.04;77.18;99995.21;217794;1260;140266;-70
2023/09/23 18:54:28;;;;;;;5.20;3.00;;;;;;;14.97;77.68;100004.08;214426;1298;659259;-73
2023/09/23 18:59:39;;;;;;;5.10;2.70;;;;;;;14.87;77.80;100011.30;217737;1266;138999;-73
2023/09/23 19:04:42;;;;;;;3.50;2.70;;;;;;;14.78;78.15;100015.52;216499;1264;487002;-72
2023/09/23 19:09:44;;;;;;;2.70;2.60;;;;;;;14.71;78.31;100023.44;217233;1262;139701;-72
2023/09/23 19:14:47;;;;;;;7.90;3.50;;;;;;;14.68;78.21;100029.16;217462;1264;138900;-72
2023/09/23 19:19:50;;;;;;;2.90;2.70;;;;;;;14.67;78.39;100040.52;216858;1267;140505;-71
2023/09/23 19:24:58;;;;;;;2.90;2.60;;;;;;;14.66;78.21;100039.73;218234;1263;140917;-72
2023/09/23 19:30:14;;;;;;;2.80;2.60;;;;;;;14.64;78.05;100053.98;216800;1263;140129;-72
2023/09/23 19:35:22;;;;;;;5.70;2.30;;;;;;;14.60;77.95;100067.61;216819;1263;139314;-72
2023/09/23 19:40:25;;;;;;;4.00;2.90;;;;;;;14.57;77.89;100076.38;217878;1262;139412;-71
2023/09/23 19:45:31;;;;;;;2.80;2.60;;;;;;;14.54;77.76;100077.48;218773;1263;139341;-69
2023/09/23 19:50:47;;;;;;;2.70;2.40;;;;;;;14.54;77.90;100075.60;217942;1262;141319;-72
2023/09/23 19:55:52;;;;;;;3.00;2.80;;;;;;;14.52;77.57;100070.42;217534;1267;139101;-73
2023/09/23 20:00:58;;;;;;;2.70;2.50;;;;;;;14.46;77.54;100068.98;219879;1259;140666;-73
2023/09/23 20:06:04;;;;;;;2.50;2.30;;;;;;;14.37;77.36;100071.41;218043;1261;139545;-73
2023/09/23 20:11:09;;;;;;;3.20;2.80;;;;;;;14.30;77.32;100079.60;218790;1259;140711;-73
2023/09/23 20:16:12;;;;;;;2.20;2.00;;;;;;;14.24;77.56;100084.08;218201;1259;139980;-72
2023/09/23 20:21:17;;;;;;;2.10;2.00;;;;;;;14.18;77.66;100089.91;217734;1260;140269;-72
2023/09/23 20:26:22;;;;;;;2.50;2.30;;;;;;;14.10;77.65;100089.48;218336;1259;139162;-73
2023/09/23 20:31:27;;;;;;;3.00;2.20;;;;;;;14.03;77.86;100092.02;217347;1259;139957;-72
2023/09/23 20:36:32;;;;;;;1.90;1.60;;;;;;;13.91;77.91;100096.14;217291;1260;139984;-72
2023/09/23 20:41:34;;;;;;;2.10;1.90;;;;;;;13.77;78.12;100111.83;217559;1260;139489;-71
2023/09/23 20:46:38;;;;;;;2.10;2.00;;;;;;;13.68;78.16;100119.63;217262;1261;139055;-72
2023/09/23 20:51:45;;;;;;;1.50;1.40;;;;;;;13.56;77.99;100128.02;217358;1260;139034;-72
2023/09/23 20:56:49;;;;;;;5.40;2.10;;;;;;;13.38;78.29;100124.15;217523;1260;139433;-72
2023/09/23 21:01:54;;;;;;;2.30;2.10;;;;;;;13.25;78.23;100120.76;218038;1261;139830;-72
2023/09/23 21:06:59;;;;;;;2.60;2.30;;;;;;;13.15;78.47;100118.23;217325;1261;139598;-71
2023/09/23 21:12:03;;;;;;;5.30;2.40;;;;;;;13.04;78.38;100117.83;218032;1259;140202;-72
2023/09/23 21:17:07;;;;;;;4.10;1.90;;;;;;;12.95;78.75;100117.70;217811;1263;139375;-72
2023/09/23 21:22:10;;;;;;;1.70;1.60;;;;;;;12.83;78.57;100115.95;218280;1259;139507;-72
2023/09/23 21:27:16;;;;;;;2.60;2.40;;;;;;;12.67;78.48;100107.52;218132;1259;140593;-72
2023/09/23 21:32:22;;;;;;;4.60;2.20;;;;;;;12.58;78.69;100100.13;217420;1259;140335;-72
2023/09/23 21:37:33;;;;;;;2.90;2.60;;;;;;;12.47;78.54;100099.81;217980;1259;139471;-73
2023/09/23 21:42:38;;;;;;;2.20;2.00;;;;;;;12.33;78.75;100109.91;219174;1259;139561;-73
2023/09/23 21:47:42;;;;;;;2.30;2.10;;;;;;;12.17;78.43;100123.06;219384;1259;140259;-73
2023/09/23 21:52:47;;;;;;;3.00;2.60;;;;;;;12.03;78.54;100119.17;220020;1259;139204;-73
2023/09/23 21:57:51;;;;;;;2.70;2.20;;;;;;;11.92;78.76;100115.90;219607;1259;139583;-72
2023/09/23 22:02:59;;;;;;;1.70;1.60;;;;;;;11.86;78.87;100127.86;218649;1259;139838;-71
2023/09/23 22:08:06;;;;;;;2.70;1.90;;;;;;;11.72;78.84;100149.14;217390;1260;139481;-75
2023/09/23 22:13:10;;;;;;;5.60;1.90;;;;;;;11.59;78.94;100166.70;218204;1260;139628;-74
2023/09/23 22:18:15;;;;;;;4.60;1.60;;;;;;;11.45;79.18;100189.31;217516;1260;140322;-74
2023/09/23 22:23:20;;;;;;;2.80;1.90;;;;;;;11.35;79.72;100191.89;217556;1260;141755;-74
2023/09/23 22:28:27;;;;;;;1.90;1.80;;;;;;;11.26;79.98;100194.88;217612;1261;140144;-74
2023/09/23 22:33:36;;;;;;;2.30;2.10;;;;;;;11.20;80.40;100198.14;217248;1259;139611;-72
2023/09/23 22:38:40;;;;;;;2.70;1.90;;;;;;;11.19;80.57;100206.55;217712;1260;139901;-72
2023/09/23 22:43:44;;;;;;;2.10;1.90;;;;;;;11.14;80.81;100213.66;217530;1259;139874;-72
2023/09/23 22:48:51;;;;;;;5.60;3.40;;;;;;;11.11;81.21;100210.45;218079;1259;139796;-73
2023/09/23 22:53:56;;;;;;;1.80;1.70;;;;;;;11.11;81.23;100216.86;217086;1264;140477;-71
2023/09/23 22:59:02;;;;;;;1.80;1.70;;;;;;;11.10;81.42;100214.33;218751;1259;140514;-72
2023/09/23 23:04:06;;;;;;;2.20;2.00;;;;;;;11.07;81.56;100217.61;217791;1259;140468;-72
2023/09/23 23:09:14;;;;;;;2.00;1.90;;;;;;;11.06;81.68;100222.48;218400;1259;140189;-73
2023/09/23 23:14:17;;;;;;;2.60;2.20;;;;;;;11.03;81.58;100235.35;217377;1259;139139;-73
2023/09/23 23:19:21;;;;;;;2.40;2.00;;;;;;;11.04;82.19;100242.48;217358;1260;140151;-72
2023/09/23 23:24:25;;;;;;;4.80;2.20;;;;;;;11.05;82.33;100236.85;218898;1259;139773;-73
2023/09/23 23:29:30;;;;;;;3.00;2.10;;;;;;;11.04;81.91;100244.66;217073;1259;140316;-71